createdAt,value
2023-02-17T00:01:26.330Z,10.15
2023-02-17T00:04:09.040Z,10.35
2023-02-17T00:06:51.619Z,10.45
2023-02-17T00:09:34.326Z,10.98
2023-02-17T00:12:18.281Z,10.10
2023-02-17T00:15:00.899Z,10.70
2023-02-17T00:17:43.444Z,11.32
2023-02-17T00:20:26.036Z,11.15
2023-02-17T00:23:08.666Z,10.90
2023-02-17T00:25:51.394Z,10.70
2023-02-17T00:28:35.384Z,10.88
2023-02-17T00:31:19.717Z,11.05
2023-02-17T00:34:02.457Z,11.25
2023-02-17T00:36:46.715Z,11.23
2023-02-17T00:39:29.804Z,11.80
2023-02-17T00:42:12.408Z,10.32
2023-02-17T00:44:56.347Z,11.00
2023-02-17T00:47:38.940Z,11.38
2023-02-17T00:50:21.495Z,12.05
2023-02-17T00:53:04.165Z,11.48
2023-02-17T00:55:46.728Z,12.10
2023-02-17T00:58:29.369Z,10.65
2023-02-17T01:01:13.304Z,11.95
2023-02-17T01:03:56.660Z,11.82
2023-02-17T01:06:40.376Z,11.45
2023-02-17T01:09:22.949Z,11.88
2023-02-17T01:12:05.634Z,11.02
2023-02-17T01:14:48.360Z,11.35
2023-02-17T01:17:33.145Z,12.27
2023-02-17T01:20:15.860Z,11.07
2023-02-17T01:22:58.503Z,11.13
2023-02-17T01:25:41.575Z,10.98
2023-02-17T01:28:24.355Z,10.23
2023-02-17T01:31:08.623Z,11.23
2023-02-17T01:33:52.629Z,10.68
2023-02-17T01:36:35.246Z,10.75
2023-02-17T01:39:18.262Z,11.13
2023-02-17T01:42:02.461Z,10.38
2023-02-17T01:45:04.250Z,10.05
2023-02-17T01:47:50.076Z,10.43
2023-02-17T01:50:36.706Z,10.18
2023-02-17T01:53:23.008Z,10.13
2023-02-17T01:56:06.853Z,9.32
2023-02-17T01:58:52.406Z,9.60
2023-02-17T02:01:36.347Z,9.65
2023-02-17T02:04:20.175Z,9.70
2023-02-17T02:07:04.981Z,9.30
2023-02-17T02:09:49.795Z,8.98
2023-02-17T02:12:33.671Z,8.90
2023-02-17T02:15:18.320Z,8.20
2023-02-17T02:18:05.866Z,8.15
2023-02-17T02:20:57.257Z,8.48
2023-02-17T02:23:51.720Z,8.85
2023-02-17T02:26:47.622Z,8.18
2023-02-17T02:29:51.600Z,8.27
2023-02-17T02:32:49.414Z,8.07
2023-02-17T02:35:37.468Z,7.90
2023-02-17T02:38:23.056Z,7.70
2023-02-17T02:41:09.121Z,7.80
2023-02-17T02:43:52.872Z,8.18
2023-02-17T02:46:35.602Z,7.50
2023-02-17T02:49:18.335Z,7.38
2023-02-17T02:52:06.495Z,7.13
2023-02-17T02:54:53.646Z,6.95
2023-02-17T02:57:40.646Z,6.82
2023-02-17T03:00:26.380Z,6.30
2023-02-17T03:03:11.033Z,7.10
2023-02-17T03:05:56.539Z,6.78
2023-02-17T03:08:42.967Z,6.50
2023-02-17T03:11:32.367Z,6.75
2023-02-17T03:14:21.688Z,6.43
2023-02-17T03:17:04.349Z,7.07
2023-02-17T03:19:47.644Z,7.10
2023-02-17T03:22:34.236Z,6.43
2023-02-17T03:25:18.505Z,6.47
2023-02-17T03:28:02.327Z,6.63
2023-02-17T03:30:45.706Z,6.15
2023-02-17T03:33:28.646Z,6.20
2023-02-17T03:36:11.240Z,5.97
2023-02-17T03:38:53.874Z,6.10
2023-02-17T03:41:37.773Z,5.95
2023-02-17T03:44:20.662Z,5.80
2023-02-17T03:47:03.252Z,6.18
2023-02-17T03:49:45.868Z,6.30
2023-02-17T03:52:28.515Z,6.18
2023-02-17T03:55:11.197Z,6.03
2023-02-17T03:57:55.370Z,6.13
2023-02-17T04:00:38.004Z,5.90
2023-02-17T04:03:20.612Z,5.97
2023-02-17T04:06:03.662Z,5.93
2023-02-17T04:08:46.526Z,6.25
2023-02-17T04:11:29.152Z,6.28
2023-02-17T04:14:13.149Z,6.25
2023-02-17T04:16:55.815Z,5.85
2023-02-17T04:19:38.416Z,6.13
2023-02-17T04:22:21.033Z,5.90
2023-02-17T04:25:03.618Z,5.93
2023-02-17T04:27:46.242Z,5.80
2023-02-17T04:30:30.409Z,5.15
2023-02-17T04:33:13.032Z,5.22
2023-02-17T04:35:59.416Z,5.45
2023-02-17T04:38:42.217Z,5.60
2023-02-17T04:41:24.828Z,5.43
2023-02-17T04:44:07.443Z,5.32
2023-02-17T04:46:51.372Z,5.70
2023-02-17T04:49:34.255Z,5.18
2023-02-17T04:52:16.823Z,5.57
2023-02-17T04:54:59.528Z,5.85
2023-02-17T04:57:42.137Z,5.82
2023-02-17T05:00:24.874Z,5.20
2023-02-17T05:03:08.799Z,5.93
2023-02-17T05:05:51.473Z,5.95
2023-02-17T05:08:34.038Z,5.32
2023-02-17T05:11:16.679Z,6.22
2023-02-17T05:13:59.319Z,6.47
2023-02-17T05:16:41.952Z,6.43
2023-02-17T05:19:25.868Z,6.47
2023-02-17T05:22:08.456Z,6.53
2023-02-17T05:24:51.077Z,5.80
2023-02-17T05:27:34.343Z,6.03
2023-02-17T05:30:17.076Z,6.25
2023-02-17T05:33:00.796Z,6.57
2023-02-17T05:35:44.767Z,6.15
2023-02-17T05:38:27.438Z,6.22
2023-02-17T05:41:10.068Z,6.75
2023-02-17T05:43:52.979Z,6.30
2023-02-17T05:46:35.579Z,6.75
2023-02-17T05:49:18.212Z,6.43
2023-02-17T05:52:02.191Z,6.43
2023-02-17T05:54:44.912Z,6.10
2023-02-17T05:57:27.585Z,6.28
2023-02-17T06:00:10.703Z,6.25
2023-02-17T06:02:56.011Z,6.65
2023-02-17T06:05:38.706Z,6.43
2023-02-17T06:08:22.709Z,6.97
2023-02-17T06:11:05.647Z,7.05
2023-02-17T06:13:48.354Z,7.15
2023-02-17T06:16:31.178Z,6.90
2023-02-17T06:19:13.827Z,7.90
2023-02-17T06:21:57.090Z,7.80
2023-02-17T06:24:41.134Z,8.13
2023-02-17T06:27:23.868Z,8.25
2023-02-17T06:30:07.534Z,8.10
2023-02-17T06:32:50.456Z,8.25
2023-02-17T06:35:33.100Z,8.43
2023-02-17T06:38:15.789Z,8.70
2023-02-17T06:40:59.788Z,8.85
2023-02-17T06:43:42.501Z,8.00
2023-02-17T06:46:25.232Z,9.13
2023-02-17T06:49:08.210Z,9.25
2023-02-17T06:51:50.863Z,8.57
2023-02-17T06:54:33.565Z,9.40
2023-02-17T06:57:17.556Z,9.10
2023-02-17T07:00:00.242Z,9.55
2023-02-17T07:02:43.020Z,9.52
2023-02-17T07:05:25.706Z,9.65
2023-02-17T07:08:08.342Z,10.73
2023-02-17T07:10:51.268Z,10.10
2023-02-17T07:13:35.354Z,10.98
2023-02-17T07:16:18.126Z,10.38
2023-02-17T07:19:00.837Z,10.60
2023-02-17T07:21:43.936Z,11.05
2023-02-17T07:24:26.817Z,10.85
2023-02-17T07:27:10.828Z,10.73
2023-02-17T07:29:55.379Z,10.48
2023-02-17T07:32:38.090Z,10.38
2023-02-17T07:35:20.751Z,10.65
2023-02-17T07:38:03.498Z,11.52
2023-02-17T07:40:46.114Z,11.60
2023-02-17T07:43:29.186Z,10.15
2023-02-17T07:46:14.623Z,10.75
2023-02-17T07:48:57.742Z,10.70
2023-02-17T07:51:40.356Z,11.55
2023-02-17T07:54:23.091Z,11.15
2023-02-17T07:57:05.707Z,10.52
2023-02-17T07:59:48.493Z,10.63
2023-02-17T08:02:32.596Z,10.43
2023-02-17T08:05:15.306Z,10.38
2023-02-17T08:08:11.886Z,10.52
2023-02-17T08:11:11.863Z,10.40
2023-02-17T08:13:54.484Z,10.55
2023-02-17T08:16:37.211Z,9.98
2023-02-17T08:19:21.297Z,10.27
2023-02-17T08:22:04.354Z,9.63
2023-02-17T08:24:47.308Z,8.38
2023-02-17T08:27:30.238Z,8.60
2023-02-17T08:30:13.186Z,8.15
2023-02-17T08:32:55.903Z,8.38
2023-02-17T08:35:39.906Z,8.07
2023-02-17T08:38:22.606Z,7.80
2023-02-17T08:41:12.761Z,7.72
2023-02-17T08:43:55.481Z,8.10
2023-02-17T08:46:38.352Z,7.93
2023-02-17T08:49:22.164Z,8.38
2023-02-17T08:52:06.236Z,7.90
2023-02-17T08:54:51.569Z,6.78
2023-02-17T08:57:35.461Z,6.68
2023-02-17T09:00:19.385Z,6.35
2023-02-17T09:03:02.101Z,6.70
2023-02-17T09:05:44.786Z,6.32
2023-02-17T09:08:53.084Z,5.38
2023-02-17T09:11:37.207Z,5.63
2023-02-17T09:14:20.250Z,5.60
2023-02-17T09:17:04.398Z,5.85
2023-02-17T09:19:47.125Z,5.80
2023-02-17T09:22:32.493Z,5.78
2023-02-17T09:25:15.284Z,5.10
2023-02-17T09:27:59.992Z,5.18
2023-02-17T09:30:42.923Z,4.72
2023-02-17T09:33:27.140Z,5.03
2023-02-17T09:36:11.597Z,5.40
2023-02-17T09:38:54.364Z,5.07
2023-02-17T09:41:40.313Z,5.22
2023-02-17T09:44:25.874Z,5.65
2023-02-17T09:47:11.509Z,5.68
2023-02-17T09:49:56.423Z,5.38
2023-02-17T09:52:44.519Z,5.53
2023-02-17T09:55:30.306Z,5.13
2023-02-17T09:58:14.300Z,5.63
2023-02-17T10:00:59.210Z,5.53
2023-02-17T10:03:43.414Z,5.95
2023-02-17T10:06:28.694Z,5.60
2023-02-17T10:09:13.729Z,5.68
2023-02-17T10:12:00.759Z,5.32
2023-02-17T10:14:45.245Z,6.22
2023-02-17T10:17:33.447Z,6.68
2023-02-17T10:20:17.794Z,6.78
2023-02-17T10:23:03.035Z,6.82
2023-02-17T10:25:51.112Z,6.25
2023-02-17T10:28:43.214Z,6.53
2023-02-17T10:31:29.633Z,6.88
2023-02-17T10:34:20.684Z,5.72
2023-02-17T10:37:04.949Z,5.60
2023-02-17T10:39:48.963Z,5.40
2023-02-17T10:42:33.286Z,4.82
2023-02-17T10:45:20.738Z,4.88
2023-02-17T10:48:05.503Z,4.55
2023-02-17T10:50:49.808Z,4.90
2023-02-17T10:53:33.580Z,5.13
2023-02-17T10:56:18.455Z,4.35
2023-02-17T10:59:06.275Z,4.57
2023-02-17T11:01:49.385Z,4.80
2023-02-17T11:04:41.311Z,4.15
2023-02-17T11:07:28.032Z,4.35
2023-02-17T11:10:21.693Z,4.15
2023-02-17T11:13:06.237Z,5.28
2023-02-17T11:15:48.975Z,4.28
2023-02-17T11:18:33.624Z,4.32
2023-02-17T11:21:16.454Z,4.10
2023-02-17T11:24:01.911Z,3.70
2023-02-17T11:26:44.629Z,4.32
2023-02-17T11:29:27.519Z,4.38
2023-02-17T11:32:13.840Z,4.50
2023-02-17T11:34:57.911Z,4.75
2023-02-17T11:37:43.211Z,5.03
2023-02-17T11:40:29.771Z,4.93
2023-02-17T11:43:19.063Z,4.85
2023-02-17T11:46:06.140Z,4.72
2023-02-17T11:49:11.415Z,5.10
2023-02-17T11:52:01.125Z,5.38
2023-02-17T11:54:50.956Z,5.55
2023-02-17T11:57:39.435Z,5.50
2023-02-17T12:00:23.242Z,5.10
2023-02-17T12:03:33.102Z,5.63
2023-02-17T12:06:22.059Z,5.20
2023-02-17T12:09:09.685Z,5.57
2023-02-17T12:11:59.262Z,4.88
2023-02-17T12:14:51.704Z,5.45
2023-02-17T12:17:39.054Z,4.72
2023-02-17T12:20:29.543Z,4.60
2023-02-17T12:23:24.537Z,4.70
2023-02-17T12:26:12.151Z,4.50
2023-02-17T12:29:03.681Z,4.22
2023-02-17T12:31:57.481Z,4.00
2023-02-17T12:34:41.969Z,4.10
2023-02-17T12:37:25.400Z,3.90
2023-02-17T12:40:15.733Z,3.78
2023-02-17T12:43:01.315Z,3.90
2023-02-17T12:45:45.178Z,3.78
2023-02-17T12:48:33.901Z,3.53
2023-02-17T12:51:18.522Z,3.35
2023-02-17T12:54:05.836Z,3.30
2023-02-17T12:56:51.652Z,2.75
2023-02-17T12:59:35.493Z,3.25
2023-02-17T13:02:20.665Z,3.25
2023-02-17T13:05:08.362Z,3.28
2023-02-17T13:07:54.669Z,2.88
2023-02-17T13:10:38.516Z,2.50
2023-02-17T13:13:27.489Z,2.80
2023-02-17T13:16:12.057Z,2.63
2023-02-17T13:19:09.706Z,2.60
2023-02-17T13:21:55.332Z,2.40
2023-02-17T13:24:38.718Z,2.80
2023-02-17T13:27:22.528Z,2.55
2023-02-17T13:30:08.618Z,2.97
2023-02-17T13:33:01.702Z,2.45
2023-02-17T13:35:44.433Z,2.50
2023-02-17T13:38:29.495Z,2.17
2023-02-17T13:41:14.035Z,2.50
2023-02-17T13:43:57.172Z,2.60
2023-02-17T13:46:39.902Z,2.45
2023-02-17T13:49:24.349Z,2.60
2023-02-17T13:52:11.250Z,2.40
2023-02-17T13:54:56.328Z,2.90
2023-02-17T13:57:38.992Z,2.28
2023-02-17T14:00:22.449Z,2.10
2023-02-17T14:03:07.296Z,1.83
2023-02-17T14:05:50.991Z,2.30
2023-02-17T14:08:35.808Z,1.90
2023-02-17T14:11:21.719Z,1.95
2023-02-17T14:14:05.008Z,1.73
2023-02-17T14:16:56.562Z,1.63
2023-02-17T14:19:43.141Z,1.25
2023-02-17T14:22:28.798Z,1.10
2023-02-17T14:25:13.805Z,1.38
2023-02-17T14:27:57.990Z,1.20
2023-02-17T14:30:40.851Z,1.38
2023-02-17T14:33:24.631Z,1.20
2023-02-17T14:36:11.171Z,0.98
2023-02-17T14:38:55.851Z,1.38
2023-02-17T14:41:38.480Z,1.48
2023-02-17T14:44:22.555Z,1.20
2023-02-17T14:47:05.361Z,1.27
2023-02-17T14:49:48.107Z,1.58
2023-02-17T14:52:30.765Z,1.30
2023-02-17T14:55:16.776Z,1.77
2023-02-17T14:57:59.572Z,2.05
2023-02-17T15:00:43.679Z,1.50
2023-02-17T15:03:26.700Z,1.90
2023-02-17T15:06:12.825Z,1.65
2023-02-17T15:08:55.524Z,1.77
2023-02-17T15:11:38.165Z,1.75
2023-02-17T15:14:21.994Z,1.65
2023-02-17T15:17:06.063Z,1.83
2023-02-17T15:19:49.428Z,1.85
2023-02-17T15:22:32.170Z,1.45
2023-02-17T15:25:15.441Z,2.15
2023-02-17T15:27:58.229Z,1.52
2023-02-17T15:30:40.964Z,1.98
2023-02-17T15:33:25.726Z,2.13
2023-02-17T15:36:08.975Z,2.03
2023-02-17T15:38:52.001Z,2.03
2023-02-17T15:41:34.691Z,2.00
2023-02-17T15:44:18.916Z,1.92
2023-02-17T15:47:01.674Z,2.30
2023-02-17T15:49:45.856Z,2.10
2023-02-17T15:52:28.511Z,2.03
2023-02-17T15:55:11.185Z,2.22
2023-02-17T15:57:55.616Z,1.90
2023-02-17T16:00:38.367Z,1.90
2023-02-17T16:03:21.224Z,2.25
2023-02-17T16:08:50.585Z,1.95
2023-02-17T16:11:33.614Z,2.10
2023-02-17T16:14:22.074Z,1.95
2023-02-17T16:17:05.893Z,1.92
2023-02-17T16:19:48.656Z,1.75
2023-02-17T16:22:33.518Z,1.98
2023-02-17T16:25:16.945Z,1.75
2023-02-17T16:28:00.003Z,1.75
2023-02-17T16:30:42.852Z,1.90
2023-02-17T16:33:25.560Z,2.17
2023-02-17T16:36:12.849Z,1.95
2023-02-17T16:38:56.932Z,1.63
2023-02-17T16:41:39.901Z,1.90
2023-02-17T16:44:23.632Z,1.50
2023-02-17T16:47:07.091Z,1.90
2023-02-17T16:49:50.429Z,1.60
2023-02-17T16:52:33.090Z,2.00
2023-02-17T16:55:18.342Z,2.08
2023-02-17T16:58:01.572Z,1.75
2023-02-17T17:00:46.437Z,1.77
2023-02-17T17:03:29.096Z,2.00
2023-02-17T17:06:17.919Z,1.65
2023-02-17T17:09:00.623Z,2.10
2023-02-17T17:11:44.804Z,2.00
2023-02-17T17:14:27.467Z,1.75
2023-02-17T17:17:11.195Z,2.15
2023-02-17T17:19:53.844Z,1.95
2023-02-17T17:22:36.589Z,1.90
2023-02-17T17:25:21.082Z,1.80
2023-02-17T17:28:05.761Z,2.30
2023-02-17T17:30:48.797Z,2.30
2023-02-17T17:33:31.509Z,1.67
2023-02-17T17:36:16.702Z,1.60
2023-02-17T17:39:00.187Z,2.03
2023-02-17T17:41:42.851Z,1.92
2023-02-17T17:44:28.098Z,1.85
2023-02-17T17:47:21.352Z,2.03
2023-02-17T17:50:13.798Z,1.98
2023-02-17T17:52:56.478Z,1.77
2023-02-17T17:55:39.169Z,1.60
2023-02-17T17:58:22.004Z,1.60
2023-02-17T18:01:06.459Z,2.10
2023-02-17T18:03:49.679Z,1.70
2023-02-17T18:06:35.046Z,2.05
2023-02-17T18:09:30.870Z,2.10
2023-02-17T18:12:16.275Z,2.30
2023-02-17T18:15:02.598Z,2.30
2023-02-17T18:17:47.142Z,2.22
2023-02-17T18:20:29.854Z,2.15
2023-02-17T18:23:12.654Z,1.88
2023-02-17T18:25:55.332Z,2.05
2023-02-17T18:28:38.045Z,2.25
2023-02-17T18:31:20.746Z,2.25
2023-02-17T18:34:05.113Z,1.73
2023-02-17T18:36:47.796Z,2.00
2023-02-17T18:39:30.665Z,2.00
2023-02-17T18:42:13.317Z,2.03
2023-02-17T18:44:56.756Z,2.28
2023-02-17T18:47:39.481Z,1.92
2023-02-17T18:50:23.587Z,2.13
2023-02-17T18:53:06.252Z,1.90
2023-02-17T18:55:49.839Z,1.95
2023-02-17T18:58:32.455Z,1.73
2023-02-17T19:01:16.019Z,1.52
2023-02-17T19:03:59.157Z,2.03
2023-02-17T19:06:43.582Z,2.30
2023-02-17T19:09:26.257Z,1.88
2023-02-17T19:12:13.331Z,2.17
2023-02-17T19:14:56.610Z,2.25
2023-02-17T19:17:39.303Z,2.13
2023-02-17T19:20:22.025Z,1.88
2023-02-17T19:23:06.133Z,2.13
2023-02-17T19:25:48.799Z,2.00
2023-02-17T19:28:31.687Z,2.38
2023-02-17T19:31:17.401Z,2.08
2023-02-17T19:34:00.399Z,1.70
2023-02-17T19:36:43.423Z,2.35
2023-02-17T19:39:27.702Z,2.38
2023-02-17T19:42:10.388Z,1.80
2023-02-17T19:44:53.144Z,2.05
2023-02-17T19:47:35.821Z,2.45
2023-02-17T19:50:18.767Z,2.50
2023-02-17T19:53:01.455Z,2.00
2023-02-17T19:55:45.577Z,2.80
2023-02-17T19:58:28.276Z,2.30
2023-02-17T20:01:11.771Z,2.08
2023-02-17T20:03:55.163Z,2.55
2023-02-17T20:06:40.066Z,1.92
2023-02-17T20:09:23.330Z,2.40
2023-02-17T20:12:07.960Z,2.15
2023-02-17T20:14:50.644Z,2.40
2023-02-17T20:17:33.378Z,2.20
2023-02-17T20:20:16.306Z,2.35
2023-02-17T20:22:59.239Z,2.30
2023-02-17T20:25:41.972Z,2.10
2023-02-17T20:28:26.265Z,2.10
2023-02-17T20:31:09.566Z,2.20
2023-02-17T20:33:52.440Z,1.88
2023-02-17T20:36:35.328Z,2.00
2023-02-17T20:39:19.811Z,2.25
2023-02-17T20:42:02.900Z,1.90
2023-02-17T20:44:50.217Z,2.38
2023-02-17T20:47:32.983Z,1.95
2023-02-17T20:50:16.926Z,3.13
2023-02-17T20:52:59.598Z,2.35
2023-02-17T20:55:42.253Z,2.08
2023-02-17T20:58:24.938Z,2.20
2023-02-17T21:01:09.421Z,2.38
2023-02-17T21:03:52.192Z,2.00
2023-02-17T21:06:36.250Z,2.10
2023-02-17T21:09:19.442Z,2.47
2023-02-17T21:12:02.263Z,2.10
2023-02-17T21:14:45.245Z,2.00
2023-02-17T21:17:29.672Z,1.90
2023-02-17T21:20:13.711Z,2.03
2023-02-17T21:22:56.418Z,2.03
2023-02-17T21:25:39.108Z,2.60
2023-02-17T21:28:21.827Z,1.80
2023-02-17T21:31:04.878Z,2.20
2023-02-17T21:33:49.007Z,1.88
2023-02-17T21:36:31.795Z,2.08
2023-02-17T21:39:14.627Z,1.85
2023-02-17T21:41:57.279Z,1.73
2023-02-17T21:44:55.028Z,2.40
2023-02-17T21:47:37.753Z,2.45
2023-02-17T21:50:23.260Z,1.88
2023-02-17T21:53:05.925Z,2.30
2023-02-17T21:55:48.625Z,2.58
2023-02-17T21:58:31.939Z,2.05
2023-02-17T22:01:14.931Z,2.10
2023-02-17T22:03:58.322Z,2.33
2023-02-17T22:06:42.988Z,1.90
2023-02-17T22:09:25.687Z,2.28
2023-02-17T22:12:08.522Z,2.05
2023-02-17T22:14:51.201Z,2.10
2023-02-17T22:17:35.892Z,2.22
2023-02-17T22:20:19.290Z,2.05
2023-02-17T22:23:03.382Z,2.03
2023-02-17T22:25:46.068Z,1.40
2023-02-17T22:28:28.783Z,2.13
2023-02-17T22:31:12.945Z,2.10
2023-02-17T22:33:56.889Z,1.88
2023-02-17T22:36:39.600Z,2.20
2023-02-17T22:39:23.682Z,2.10
2023-02-17T22:42:07.539Z,2.53
2023-02-17T22:44:50.463Z,1.65
2023-02-17T22:47:33.172Z,2.03
2023-02-17T22:50:15.924Z,2.15
2023-02-17T22:52:58.614Z,1.70
2023-02-17T22:55:42.647Z,2.25
2023-02-17T22:58:25.782Z,1.73
2023-02-17T23:01:09.838Z,2.28
2023-02-17T23:03:54.351Z,1.80
2023-02-17T23:06:38.011Z,2.20
2023-02-17T23:09:20.922Z,2.30
2023-02-17T23:12:05.104Z,2.00
2023-02-17T23:14:47.812Z,2.10
2023-02-17T23:17:51.095Z,2.00
2023-02-17T23:20:33.900Z,1.70
2023-02-17T23:23:16.963Z,2.45
2023-02-17T23:25:59.660Z,2.00
2023-02-17T23:28:43.699Z,2.22
2023-02-17T23:31:26.524Z,2.35
2023-02-17T23:34:09.522Z,2.42
2023-02-17T23:36:52.321Z,1.90
2023-02-17T23:39:37.641Z,1.80
2023-02-17T23:42:20.323Z,2.25
2023-02-17T23:45:04.470Z,2.30
2023-02-17T23:47:47.119Z,1.95
2023-02-17T23:50:29.859Z,1.90
2023-02-17T23:53:12.513Z,1.90
2023-02-17T23:56:02.879Z,2.05
2023-02-17T23:58:45.539Z,2.22
